Rockwall's Hourly Summary for Tuesday, May 15, 2018
Hour Temp
(f)
RH
(%)
Solar Rad.
(MJ/m2)
Rainfall
(in)
Wind
(mph)
5/15/2018 12:00 AM 77 72 0 0 4.57
5/15/2018 1:00 AM 76 72 0 0 4.12
5/15/2018 2:00 AM 75 72 0 0 5
5/15/2018 3:00 AM 75 70 0 0 4.94
5/15/2018 4:00 AM 75 70 0 0 4.71
5/15/2018 5:00 AM 75 71 0 0 2.74
5/15/2018 6:00 AM 74 72 0 0 1.71
5/15/2018 7:00 AM 74 74 0 0 1.14
5/15/2018 8:00 AM 72 76 0.15 0 2.42
5/15/2018 9:00 AM 72 76 0.29 0 2.65
5/15/2018 10:00 AM 72 82 0.23 0 2.2
5/15/2018 11:00 AM 71 86 0.49 0.1 1.54
5/15/2018 12:00 PM 74 70 2.54 0 4.32
5/15/2018 1:00 PM 78 55 2.36 0 5.38
5/15/2018 2:00 PM 81 54 2.31 0 5.46
5/15/2018 3:00 PM 83 52 2.29 0 4.25
5/15/2018 4:00 PM 85 43 2.47 0 4.44
5/15/2018 5:00 PM 86 43 1.88 0 1.81
5/15/2018 6:00 PM 85 46 0.91 0 1.93
5/15/2018 7:00 PM 82 45 0.34 0 2.73
5/15/2018 8:00 PM 77 61 0.16 0 4.53
5/15/2018 9:00 PM 74 67 0.01 0 3.49
5/15/2018 10:00 PM 71 72 0 0 0.52
5/15/2018 11:00 PM 71 74 0 0 0
Data Summary 76 65 16.43 0.10 3.19